Terminal Aerodrome Forecast
Issued by NWS Shreveport, LA

Home | Current Version | Previous Version | Text Only | Print | Product List | Glossary On
Versions: 1 2 3 4 5 6 7 8 9 10 11 12 13 14 15 16 17
000
FTUS44 KSHV 181100
TAFTYR
TAF
KTYR 181122Z 1812/1912 21004KT P6SM SCT050 BKN100
     FM181700 16007KT P6SM VCTS BKN040CB BKN100
     FM182300 15004KT P6SM BKN120
     FM190400 VRB03KT P6SM BKN040
      TEMPO 1910/1912 3SM BR=

USA.gov is the U.S. government's official web portal to all federal, state and local government web resources and services.